Terminal Aerodrome Forecast
Issued by NWS

Home | Current Version | Previous Version | Text Only | Print | Product List | Glossary On
Versions: 1 2 3 4 5 6 7 8 9 10 11 12 13 14 15
000
FTUS45 KSLC 291948 AAA
TAFLGU
TAF AMD
KLGU 291948Z 2920/3018 27010KT P6SM VCTS SCT040CB BKN080
     FM292100 20010KT P6SM VCSH SCT090 BKN150
     FM300200 VRB04KT P6SM FEW120 SCT150=

USA.gov is the U.S. government's official web portal to all federal, state and local government web resources and services.